»·PEaware :: N505TC KOAK-KLAX

N505TC :: KOAK-KLAX

FLIGHT INFORMATION

Flight Status: Arrived
Operator: Privately registered:
United States
More flights under this callsign
Pilot: David I. (28153)
Aircraft: DASSAULT AVIATION FALCON 50
(FA50)
More flights by this aircraft type
Origin: KOAK Metro Oakland Intl
United States
Destination: KLAX Los Angeles Intl
United States
More flights between these airports :: More routes between these airports
Route: CNDEL4 EBAYE BURGL BAYST1
File this flight plan on PilotEdge
Remarks:
Altitude:
(Current/Filed)
33,000ft
Speed:
(Current/Filed)
450kts
Departed: 23-Feb-21 08:43 AM
Arrived: 23-Feb-21 09:48 AM
Distance/Time
Traveled:
294nm/1:05
Distance/Time
To Go:
Arrived

Flight Plot

Page will automatically refresh every two minutes.

Flight plan parsing failed; only flown route is shown


Map Options




Map Legend


Flown Route
Filed Route
Departure Airport
Arrival Airport
Navaid (VOR, NDB)
Fix

Horizontal Profiles

Position Reports

Time Latitude Longitude Heading Altitude Ground
Speed
23-Feb-21 08:13 37.728497 -122.211174 214 14ft 0kts
23-Feb-21 08:14 37.728497 -122.211174 214 14ft 0kts
23-Feb-21 08:15 37.728497 -122.211174 214 14ft 0kts
23-Feb-21 08:16 37.728497 -122.211174 214 14ft 0kts
23-Feb-21 08:17 37.728497 -122.211174 214 14ft 0kts
23-Feb-21 08:18 37.728497 -122.211174 214 14ft 0kts
23-Feb-21 08:19 37.728497 -122.211174 214 14ft 0kts
23-Feb-21 08:20 37.728497 -122.211174 214 14ft 0kts
23-Feb-21 08:21 37.728497 -122.211174 214 14ft 0kts
23-Feb-21 08:22 37.728497 -122.211174 214 14ft 0kts
23-Feb-21 08:23 37.728497 -122.211174 214 14ft 0kts
23-Feb-21 08:24 37.728497 -122.211174 214 14ft 0kts
23-Feb-21 08:25 37.728497 -122.211174 214 14ft 0kts
23-Feb-21 08:26 37.728497 -122.211174 214 14ft 0kts
23-Feb-21 08:27 37.728497 -122.211174 214 14ft 0kts
23-Feb-21 08:28 37.728497 -122.211174 214 14ft 0kts
23-Feb-21 08:29 37.728497 -122.211174 214 14ft 0kts
23-Feb-21 08:30 37.728497 -122.211174 214 14ft 0kts
23-Feb-21 08:31 37.728497 -122.211174 214 14ft 0kts
23-Feb-21 08:32 37.728497 -122.211174 214 14ft 0kts
23-Feb-21 08:33 37.728497 -122.211174 214 14ft 0kts
23-Feb-21 08:34 37.728497 -122.211174 214 14ft 0kts
23-Feb-21 08:35 37.728497 -122.211174 214 14ft 0kts
23-Feb-21 08:36 37.728497 -122.211174 214 14ft 0kts
23-Feb-21 08:37 37.727961 -122.211126 127 14ft 3kts
23-Feb-21 08:38 37.727183 -122.208794 112 14ft 6kts
23-Feb-21 08:39 37.726342 -122.206184 114 14ft 11kts
23-Feb-21 08:40 37.725675 -122.204492 161 14ft 0kts
23-Feb-21 08:41 37.725062 -122.204758 215 14ft 6kts
23-Feb-21 08:42 37.729680 -122.219841 292 146ft 144kts
23-Feb-21 08:43 37.750952 -122.276396 298 3120ft 224kts
23-Feb-21 08:44 37.789008 -122.347981 297 6226ft 272kts
23-Feb-21 08:45 37.748539 -122.413827 185 8333ft 298kts
23-Feb-21 08:46 37.663598 -122.433648 189 9818ft 317kts
23-Feb-21 08:47 37.575276 -122.454456 189 10420ft 323kts
23-Feb-21 08:48 37.477817 -122.459513 160 12535ft 394kts
23-Feb-21 08:50 37.382390 -122.381227 125 14614ft 431kts
23-Feb-21 08:51 37.330019 -122.244780 109 16821ft 446kts
23-Feb-21 08:52 37.248447 -122.122903 147 19326ft 479kts
23-Feb-21 08:53 37.151122 -122.016411 128 21833ft 475kts
23-Feb-21 08:54 37.062038 -121.896248 130 24329ft 473kts
23-Feb-21 08:55 36.972976 -121.777121 131 26841ft 465kts
23-Feb-21 08:56 36.886100 -121.661335 131 29323ft 452kts
23-Feb-21 08:57 36.801728 -121.549282 131 31772ft 437kts
23-Feb-21 08:58 36.719441 -121.440353 131 33219ft 445kts
23-Feb-21 08:59 36.631497 -121.324360 132 33210ft 480kts
23-Feb-21 09:00 36.538158 -121.201703 132 33207ft 501kts
23-Feb-21 09:01 36.441293 -121.074907 132 33184ft 510kts
23-Feb-21 09:02 36.348432 -120.942474 129 33182ft 507kts
23-Feb-21 09:03 36.256436 -120.810631 129 33182ft 505kts
23-Feb-21 09:04 36.164710 -120.679687 129 33183ft 504kts
23-Feb-21 09:05 36.072837 -120.549043 129 33183ft 504kts
23-Feb-21 09:06 35.980796 -120.418665 129 33188ft 504kts
23-Feb-21 09:07 35.891058 -120.292052 130 33190ft 504kts
23-Feb-21 09:08 35.778257 -120.191858 147 33185ft 506kts
23-Feb-21 09:09 35.658545 -120.102111 147 33195ft 505kts
23-Feb-21 09:10 35.538604 -120.011634 147 33187ft 506kts
23-Feb-21 09:11 35.419027 -119.921749 147 33161ft 506kts
23-Feb-21 09:11 35.318838 -119.846682 147 33159ft 506kts
23-Feb-21 09:13 35.186424 -119.728458 141 32431ft 511kts
23-Feb-21 09:14 35.076555 -119.626054 141 30284ft 486kts
23-Feb-21 09:15 34.976928 -119.533510 140 27925ft 469kts
23-Feb-21 09:16 34.879118 -119.443908 145 25989ft 440kts
23-Feb-21 09:16 34.791681 -119.365726 145 24397ft 436kts
23-Feb-21 09:17 34.697471 -119.282556 146 23081ft 443kts
23-Feb-21 09:18 34.597918 -119.196186 146 22402ft 446kts
23-Feb-21 09:20 34.478073 -119.090877 145 20647ft 463kts
23-Feb-21 09:20 34.391634 -119.015336 145 18870ft 449kts
23-Feb-21 09:21 34.296745 -118.931258 144 16341ft 399kts
23-Feb-21 09:22 34.215741 -118.857311 144 14548ft 335kts
23-Feb-21 09:23 34.146729 -118.790740 140 13028ft 309kts
23-Feb-21 09:24 34.083166 -118.721735 140 11990ft 298kts
23-Feb-21 09:25 34.028424 -118.647712 105 11600ft 327kts
23-Feb-21 09:26 34.018442 -118.544846 95 9616ft 287kts
23-Feb-21 09:27 34.006310 -118.454675 111 7798ft 242kts
23-Feb-21 09:28 33.972169 -118.384194 121 6982ft 234kts
23-Feb-21 09:29 33.938350 -118.319111 116 7014ft 249kts
23-Feb-21 09:30 33.915559 -118.238275 106 6585ft 246kts
23-Feb-21 09:31 33.905419 -118.161704 83 5662ft 239kts
23-Feb-21 09:32 33.912722 -118.086439 81 4971ft 203kts
23-Feb-21 09:33 33.947734 -118.036898 63 5014ft 229kts
23-Feb-21 09:34 33.996887 -117.994729 72 4999ft 222kts
23-Feb-21 09:35 33.956080 -117.952822 162 5000ft 229kts
23-Feb-21 09:36 33.897316 -117.929275 162 4994ft 233kts
23-Feb-21 09:37 33.871762 -117.966867 309 5059ft 185kts
23-Feb-21 09:38 33.910784 -118.011407 317 4993ft 209kts
23-Feb-21 09:39 33.950879 -118.055304 318 4981ft 179kts
23-Feb-21 09:40 33.964788 -118.111255 265 4884ft 200kts
23-Feb-21 09:41 33.958506 -118.174913 264 3545ft 159kts
23-Feb-21 09:42 33.952997 -118.228738 264 2634ft 151kts
23-Feb-21 09:43 33.948575 -118.272409 264 1901ft 123kts
23-Feb-21 09:44 33.944330 -118.313481 263 1234ft 120kts
23-Feb-21 09:45 33.940272 -118.354043 263 594ft 120kts
23-Feb-21 09:46 33.936394 -118.392177 263 112ft 91kts
23-Feb-21 09:47 33.934220 -118.401270 82 112ft 8kts
23-Feb-21 09:48 33.934619 -118.397158 100 112ft 8kts
23-Feb-21 09:49 33.933374 -118.399265 246 112ft 6kts
23-Feb-21 09:50 33.932904 -118.399201 82 112ft 0kts
23-Feb-21 09:51 33.932904 -118.399201 82 112ft 0kts

Navigation Log

Ident Type
Flight plan parsing failed, navigation log unavailable